createdAt,value
2022-09-12T00:00:28.583Z,16.64
2022-09-12T00:01:28.575Z,16.64
2022-09-12T00:02:28.597Z,16.67
2022-09-12T00:03:28.562Z,16.58
2022-09-12T00:04:28.572Z,16.51
2022-09-12T00:05:28.572Z,16.42
2022-09-12T00:06:28.529Z,16.43
2022-09-12T00:07:28.548Z,16.51
2022-09-12T00:08:28.543Z,16.57
2022-09-12T00:09:28.513Z,16.65
2022-09-12T00:10:28.532Z,16.65
2022-09-12T00:11:28.503Z,16.49
2022-09-12T00:12:28.499Z,16.62
2022-09-12T00:13:28.505Z,16.64
2022-09-12T00:14:28.483Z,16.43
2022-09-12T00:15:28.496Z,16.44
2022-09-12T00:16:28.512Z,16.55
2022-09-12T00:17:28.516Z,16.37
2022-09-12T00:18:28.484Z,16.47
2022-09-12T00:19:28.468Z,16.55
2022-09-12T00:20:28.463Z,16.43
2022-09-12T00:21:28.446Z,16.52
2022-09-12T00:22:28.475Z,16.59
2022-09-12T00:23:28.454Z,16.57
2022-09-12T00:24:28.442Z,16.61
2022-09-12T00:25:28.432Z,16.47
2022-09-12T00:26:28.453Z,16.40
2022-09-12T00:27:28.439Z,16.42
2022-09-12T00:28:28.425Z,16.37
2022-09-12T00:29:28.428Z,16.33
2022-09-12T00:30:28.400Z,16.36
2022-09-12T00:31:28.508Z,16.29
2022-09-12T00:32:28.386Z,16.47
2022-09-12T00:33:28.410Z,16.58
2022-09-12T00:34:28.378Z,16.55
2022-09-12T00:35:28.393Z,16.61
2022-09-12T00:36:28.389Z,16.65
2022-09-12T00:37:28.396Z,16.70
2022-09-12T00:38:28.357Z,16.65
2022-09-12T00:39:28.367Z,16.59
2022-09-12T00:40:28.365Z,16.43
2022-09-12T00:41:28.362Z,16.32
2022-09-12T00:42:28.334Z,16.22
2022-09-12T00:43:28.344Z,16.13
2022-09-12T00:44:28.327Z,16.00
2022-09-12T00:45:28.379Z,15.90
2022-09-12T00:46:28.312Z,15.99
2022-09-12T00:47:28.316Z,16.10
2022-09-12T00:48:28.321Z,16.24
2022-09-12T00:49:28.322Z,16.21
2022-09-12T00:50:28.313Z,16.37
2022-09-12T00:51:28.300Z,16.29
2022-09-12T00:52:28.297Z,16.29
2022-09-12T00:53:28.290Z,16.33
2022-09-12T00:54:28.277Z,16.46
2022-09-12T00:55:28.292Z,16.25
2022-09-12T00:56:28.263Z,16.21
2022-09-12T00:57:28.279Z,16.24
2022-09-12T00:58:28.277Z,16.34
2022-09-12T00:59:28.256Z,16.37
2022-09-12T01:00:28.256Z,16.26
2022-09-12T01:01:31.832Z,16.13
2022-09-12T01:02:28.250Z,16.16
2022-09-12T01:03:28.265Z,16.16
2022-09-12T01:04:28.225Z,16.02
2022-09-12T01:05:28.219Z,16.03
2022-09-12T01:06:28.208Z,16.17
2022-09-12T01:07:28.215Z,15.99
2022-09-12T01:08:28.192Z,16.06
2022-09-12T01:09:28.225Z,16.09
2022-09-12T01:10:28.188Z,16.05
2022-09-12T01:11:28.181Z,15.93
2022-09-12T01:12:28.182Z,15.99
2022-09-12T01:13:28.160Z,15.91
2022-09-12T01:14:28.191Z,15.84
2022-09-12T01:15:28.177Z,15.73
2022-09-12T01:16:28.169Z,15.84
2022-09-12T01:17:28.144Z,15.72
2022-09-12T01:18:28.153Z,15.70
2022-09-12T01:19:28.133Z,15.56
2022-09-12T01:20:28.128Z,15.69
2022-09-12T01:21:28.130Z,15.78
2022-09-12T01:22:28.138Z,15.87
2022-09-12T01:23:28.130Z,15.80
2022-09-12T01:24:28.103Z,15.68
2022-09-12T01:25:28.107Z,15.81
2022-09-12T01:26:28.109Z,15.88
2022-09-12T01:27:28.110Z,15.85
2022-09-12T01:28:28.116Z,15.91
2022-09-12T01:29:28.081Z,15.91
2022-09-12T01:30:28.094Z,15.96
2022-09-12T01:31:28.082Z,15.95
2022-09-12T01:32:28.115Z,15.80
2022-09-12T01:33:28.050Z,15.70
2022-09-12T01:34:28.079Z,15.84
2022-09-12T01:35:28.047Z,15.88
2022-09-12T01:36:28.034Z,15.84
2022-09-12T01:37:28.032Z,15.73
2022-09-12T01:38:28.045Z,15.69
2022-09-12T01:39:28.021Z,15.72
2022-09-12T01:40:28.055Z,15.66
2022-09-12T01:41:28.040Z,15.54
2022-09-12T01:42:28.025Z,15.65
2022-09-12T01:43:28.004Z,15.73
2022-09-12T01:44:28.011Z,15.65
2022-09-12T01:45:28.031Z,15.66
2022-09-12T01:46:27.981Z,15.66
2022-09-12T01:47:27.987Z,15.68
2022-09-12T01:48:27.978Z,15.73
2022-09-12T01:49:27.966Z,15.72
2022-09-12T01:50:27.971Z,15.77
2022-09-12T01:51:27.986Z,15.76
2022-09-12T01:52:27.949Z,15.70
2022-09-12T01:53:27.941Z,15.72
2022-09-12T01:54:27.937Z,15.90
2022-09-12T01:55:27.934Z,15.87
2022-09-12T01:56:27.946Z,15.98
2022-09-12T01:57:27.917Z,16.02
2022-09-12T01:58:27.920Z,16.05
2022-09-12T01:59:27.922Z,16.02
2022-09-12T02:00:27.941Z,16.02
2022-09-12T02:01:27.999Z,16.06
2022-09-12T02:02:27.974Z,16.03
2022-09-12T02:03:27.914Z,15.88
2022-09-12T02:04:32.239Z,15.81
2022-09-12T02:05:27.871Z,15.76
2022-09-12T02:06:27.871Z,15.66
2022-09-12T02:07:27.885Z,15.72
2022-09-12T02:08:27.850Z,15.69
2022-09-12T02:09:27.844Z,15.76
2022-09-12T02:10:32.243Z,15.72
2022-09-12T02:11:27.850Z,15.77
2022-09-12T02:12:27.838Z,15.83
2022-09-12T02:13:27.819Z,15.84
2022-09-12T02:14:27.850Z,15.83
2022-09-12T02:15:27.820Z,15.91
2022-09-12T02:16:27.851Z,16.00
2022-09-12T02:17:27.810Z,15.87
2022-09-12T02:18:27.836Z,15.93
2022-09-12T02:19:27.815Z,15.96
2022-09-12T02:20:46.870Z,15.96
2022-09-12T02:21:27.799Z,15.90
2022-09-12T02:22:27.798Z,15.99
2022-09-12T02:23:27.770Z,15.99
2022-09-12T02:24:27.777Z,15.83
2022-09-12T02:25:27.751Z,15.63
2022-09-12T02:26:27.755Z,15.51
2022-09-12T02:27:27.767Z,15.54
2022-09-12T02:28:27.740Z,15.65
2022-09-12T02:29:27.752Z,15.65
2022-09-12T02:30:27.801Z,15.60
2022-09-12T02:31:27.723Z,15.54
2022-09-12T02:32:27.733Z,15.62
2022-09-12T02:33:27.708Z,15.59
2022-09-12T02:34:27.726Z,15.65
2022-09-12T02:35:27.729Z,15.70
2022-09-12T02:36:27.710Z,15.76
2022-09-12T02:37:27.687Z,15.76
2022-09-12T02:38:27.705Z,15.73
2022-09-12T02:39:27.673Z,15.63
2022-09-12T02:40:27.675Z,15.52
2022-09-12T02:41:27.663Z,15.43
2022-09-12T02:42:27.667Z,15.30
2022-09-12T02:43:27.669Z,15.32
2022-09-12T02:44:27.650Z,15.41
2022-09-12T02:45:27.720Z,15.43
2022-09-12T02:46:27.644Z,15.41
2022-09-12T02:47:27.639Z,15.51
2022-09-12T02:48:27.630Z,15.59
2022-09-12T02:49:27.616Z,15.62
2022-09-12T02:50:27.636Z,15.51
2022-09-12T02:51:27.607Z,15.33
2022-09-12T02:52:27.640Z,15.32
2022-09-12T02:53:27.615Z,15.27
2022-09-12T02:54:27.598Z,15.30
2022-09-12T02:55:27.585Z,15.23
2022-09-12T02:56:27.612Z,15.27
2022-09-12T02:57:27.612Z,15.35
2022-09-12T02:58:27.568Z,15.33
2022-09-12T02:59:27.594Z,15.40
2022-09-12T03:00:27.554Z,15.47
2022-09-12T03:01:27.637Z,15.26
2022-09-12T03:02:27.609Z,15.45
2022-09-12T03:03:27.545Z,15.43
2022-09-12T03:04:27.548Z,15.41
2022-09-12T03:05:27.560Z,15.45
2022-09-12T03:06:27.518Z,15.50
2022-09-12T03:07:27.542Z,15.59
2022-09-12T03:08:27.529Z,15.56
2022-09-12T03:09:27.541Z,15.45
2022-09-12T03:10:27.497Z,15.48
2022-09-12T03:11:27.508Z,15.38
2022-09-12T03:12:27.494Z,15.30
2022-09-12T03:13:27.513Z,15.40
2022-09-12T03:14:27.478Z,15.36
2022-09-12T03:15:27.488Z,15.45
2022-09-12T03:16:27.538Z,15.44
2022-09-12T03:17:27.489Z,15.44
2022-09-12T03:18:27.458Z,15.36
2022-09-12T03:19:27.470Z,15.50
2022-09-12T03:20:27.446Z,15.56
2022-09-12T03:21:27.446Z,15.52
2022-09-12T03:22:27.436Z,15.43
2022-09-12T03:23:27.436Z,15.45
2022-09-12T03:24:27.420Z,15.48
2022-09-12T03:25:27.440Z,15.30
2022-09-12T03:26:27.409Z,15.23
2022-09-12T03:27:27.414Z,15.20
2022-09-12T03:28:27.415Z,15.15
2022-09-12T03:29:27.402Z,15.22
2022-09-12T03:30:27.522Z,15.20
2022-09-12T03:31:27.436Z,15.30
2022-09-12T03:32:27.387Z,15.17
2022-09-12T03:33:27.368Z,15.11
2022-09-12T03:34:27.361Z,15.25
2022-09-12T03:35:27.357Z,15.11
2022-09-12T03:36:27.359Z,15.22
2022-09-12T03:37:27.377Z,15.36
2022-09-12T03:38:27.372Z,15.33
2022-09-12T03:39:27.356Z,15.38
2022-09-12T03:40:27.340Z,15.23
2022-09-12T03:41:27.327Z,15.15
2022-09-12T03:42:27.315Z,14.99
2022-09-12T03:43:27.306Z,14.97
2022-09-12T03:44:27.306Z,14.93
2022-09-12T03:45:27.330Z,14.97
2022-09-12T03:46:27.299Z,15.14
2022-09-12T03:47:27.295Z,15.11
2022-09-12T03:48:27.309Z,15.22
2022-09-12T03:49:27.269Z,15.22
2022-09-12T03:50:27.284Z,15.27
2022-09-12T03:51:27.259Z,15.29
2022-09-12T03:52:27.264Z,15.30
2022-09-12T03:53:27.260Z,15.30
2022-09-12T03:54:27.239Z,15.25
2022-09-12T03:55:27.252Z,15.36
2022-09-12T03:56:27.231Z,15.35
2022-09-12T03:57:27.228Z,15.41
2022-09-12T03:58:27.260Z,15.27
2022-09-12T03:59:27.237Z,15.30
2022-09-12T04:00:27.203Z,15.30
2022-09-12T04:01:27.254Z,15.27
2022-09-12T04:02:27.238Z,15.33
2022-09-12T04:03:27.224Z,15.27
2022-09-12T04:04:27.185Z,15.43
2022-09-12T04:05:27.172Z,15.43
2022-09-12T04:06:27.179Z,15.45
2022-09-12T04:07:27.173Z,15.43
2022-09-12T04:08:27.194Z,15.45
2022-09-12T04:09:27.171Z,15.33
2022-09-12T04:10:27.148Z,15.33
2022-09-12T04:11:27.145Z,15.27
2022-09-12T04:12:27.135Z,15.26
2022-09-12T04:13:27.148Z,15.30
2022-09-12T04:14:27.155Z,15.25
2022-09-12T04:15:27.120Z,15.33
2022-09-12T04:16:27.157Z,15.22
2022-09-12T04:17:27.128Z,15.25
2022-09-12T04:18:27.129Z,15.33
2022-09-12T04:19:27.099Z,15.25
2022-09-12T04:20:27.117Z,15.40
2022-09-12T04:21:27.118Z,15.40
2022-09-12T04:22:27.071Z,15.35
2022-09-12T04:23:27.084Z,15.40
2022-09-12T04:24:27.079Z,15.38
2022-09-12T04:25:27.052Z,15.35
2022-09-12T04:26:27.048Z,15.27
2022-09-12T04:27:27.044Z,15.11
2022-09-12T04:28:27.055Z,15.08
2022-09-12T04:29:27.059Z,15.11
2022-09-12T04:30:27.058Z,15.20
2022-09-12T04:31:27.022Z,15.17
2022-09-12T04:32:27.013Z,15.23
2022-09-12T04:33:27.011Z,15.14
2022-09-12T04:34:27.011Z,15.26
2022-09-12T04:35:26.996Z,15.23
2022-09-12T04:36:27.020Z,15.20
2022-09-12T04:37:27.009Z,14.99
2022-09-12T04:38:26.999Z,15.01
2022-09-12T04:39:26.995Z,15.01
2022-09-12T04:40:26.978Z,15.04
2022-09-12T04:41:26.971Z,15.11
2022-09-12T04:42:26.959Z,15.15
2022-09-12T04:43:27.002Z,15.11
2022-09-12T04:44:26.947Z,15.11
2022-09-12T04:45:26.966Z,15.20
2022-09-12T04:46:26.935Z,15.23
2022-09-12T04:47:26.952Z,15.23
2022-09-12T04:48:26.957Z,15.30
2022-09-12T04:49:26.919Z,15.36
2022-09-12T04:50:26.904Z,15.41
2022-09-12T04:51:26.912Z,15.44
2022-09-12T04:52:26.899Z,15.36
2022-09-12T04:53:26.921Z,15.33
2022-09-12T04:54:26.883Z,15.45
2022-09-12T04:55:26.886Z,15.43
2022-09-12T04:57:58.329Z,15.35
